Latest Weather Observations for Gold Coast Seaway

IDQ60801

Issued at 7:02 am EST Friday 28 August 2015 (issued every 30 minutes, with the page automatically refreshed every 10 minutes)

About weather observations | Map of weather stations | Latest weather observations for QLD | Other Formats
Station Details ID: 040764 Name: GOLD COAST SEAWAY Lat: -27.94 Lon: 153.43 Height: 2.98 m
Data from the previous 72 hours. | See also: Recent months at Gold Coast Seaway
Date/Time
EST
Temp
°C
App
Temp
°C
Dew
Point
Rel
Hum
%
Delta-T
°C
Wind Press
QNH
hPa
Press
MSL
hPa
Rain
since 9 am
mm
Dir
 
Spd
km/h
Gust
km/h
Spd
kts
Gust
kts
28/07:00am 16.3 16.5 15.8 97 0.3 SW 9 11 5 6 1020.9 1020.9 4.2
28/06:30am 16.1 16.4 15.9 99 0.1 SSW 9 9 5 5 1020.7 1020.7 4.2
28/06:00am 16.3 16.2 16.0 98 0.2 WNW 11 13 6 7 1020.7 1020.7 4.2
28/05:30am 16.4 16.0 16.2 99 0.1 WNW 13 17 7 9 1020.2 1020.2 4.2
28/05:00am 16.1 15.2 15.9 99 0.1 W 15 17 8 9 1019.9 1019.9 4.2
28/04:30am 15.9 15.8 15.9 100 0.0 WNW 11 15 6 8 1019.7 1019.7 4.2
28/04:00am 15.9 16.2 15.9 100 0.0 NNW 9 11 5 6 1019.7 1019.7 4.2
28/03:30am 15.8 16.0 15.8 100 0.0 NW 9 11 5 6 1019.7 1019.7 4.0
28/03:00am 15.6 15.7 15.4 99 0.1 WNW 9 11 5 6 1019.7 1019.7 4.0
28/02:30am 15.6 14.9 15.4 99 0.1 WNW 13 17 7 9 1020.0 1020.0 4.0
28/02:00am 15.8 15.6 15.6 99 0.1 N 11 13 6 7 1019.9 1019.9 3.8
28/01:30am 15.8 16.9 15.6 99 0.1 NNW 4 7 2 4 1020.2 1020.2 3.8
28/01:00am 16.0 16.0 15.2 95 0.5 W 9 11 5 6 1020.7 1020.7 3.8
28/12:30am 16.1 15.7 15.3 95 0.5 W 11 13 6 7 1020.7 1020.7 2.8
28/12:00am 15.9 16.3 15.4 97 0.3 WNW 7 9 4 5 1020.7 1020.7 2.8
 
Date/Time
EST
Temp
°C
App
Temp
°C
Dew
Point
Rel
Hum
%
Delta-T
°C
Wind Press
QNH
hPa
Press
MSL
hPa
Rain
since 9 am
mm
Dir
 
Spd
km/h
Gust
km/h
Spd
kts
Gust
kts
27/11:30pm 16.0 15.7 15.5 97 0.3 WNW 11 13 6 7 1020.8 1020.8 2.8
27/11:00pm 15.6 15.7 15.4 99 0.1 W 9 11 5 6 1021.0 1021.0 2.8
27/10:30pm 15.1 14.6 14.9 99 0.1 W 11 13 6 7 1021.0 1021.0 2.8
27/10:00pm 15.1 14.2 14.9 99 0.1 WNW 13 15 7 8 1020.9 1020.9 2.8
27/09:30pm 15.1 14.2 14.9 99 0.1 NW 13 17 7 9 1021.1 1021.1 2.8
27/09:00pm 15.0 13.3 14.8 99 0.1 WNW 17 19 9 10 1021.2 1021.2 2.8
27/08:30pm 15.2 14.7 15.0 99 0.1 NW 11 15 6 8 1020.7 1020.7 2.8
27/08:00pm 15.0 14.5 14.8 99 0.1 NNW 11 13 6 7 1020.8 1020.8 2.8
27/07:30pm 15.1 15.0 14.9 99 0.1 NW 9 11 5 6 1020.7 1020.7 2.6
27/07:00pm 15.0 14.6 14.2 95 0.5 NW 9 9 5 5 1020.2 1020.2 2.6
27/06:30pm 14.9 14.5 14.1 95 0.5 WNW 9 13 5 7 1020.3 1020.3 2.6
27/06:00pm 14.9 14.4 13.9 94 0.6 WSW 9 13 5 7 1020.1 1020.1 2.6
27/05:30pm 15.0 13.6 13.5 91 0.8 WNW 13 15 7 8 1019.9 1019.9 2.6
27/05:00pm 14.6 13.9 13.3 92 0.7 WNW 9 13 5 7 1019.9 1019.9 2.6
27/04:30pm 14.9 13.5 13.4 91 0.8 WNW 13 15 7 8 1020.2 1020.2 2.0
27/04:00pm 14.8 13.6 12.7 87 1.1 WNW 11 13 6 7 1020.1 1020.1 1.8
27/03:30pm 16.5 14.0 11.0 70 2.9 W 15 20 8 11 1019.9 1019.9 0.6
27/03:00pm 18.6 19.4 15.8 84 1.7 E 6 11 3 6 1019.2 1019.2 0.6
27/02:30pm 19.5 21.6 16.2 81 2.0 CALM 0 0 0 0 1019.6 1019.6 0.0
27/02:00pm 19.9 20.0 15.5 76 2.6 SE 9 11 5 6 1019.0 1019.0 0.0
27/01:30pm 20.1 20.1 16.3 79 2.3 ESE 11 13 6 7 1018.7 1018.7 0.0
27/01:00pm 20.3 20.1 14.7 70 3.3 SE 9 11 5 6 1019.1 1019.1 0.0
27/12:30pm 20.7 20.5 14.6 68 3.6 SSE 9 11 5 6 1019.4 1019.4 0.0
27/12:00pm 20.7 19.7 13.4 63 4.2 SSE 11 11 6 6 1019.8 1019.8 0.0
27/11:30am 20.1 20.0 13.3 65 3.9 E 6 7 3 4 1020.3 1020.3 0.0
27/11:00am 20.6 21.5 14.0 66 3.8 NW 2 9 1 5 1020.3 1020.3 0.0
27/10:30am 20.0 20.2 11.7 59 4.6 NW 2 6 1 3 1020.8 1020.8 0.0
27/10:00am 20.0 19.6 12.3 61 4.3 WNW 6 7 3 4 1021.3 1021.3 0.0
27/09:30am 19.1 18.3 11.2 60 4.3 NW 6 9 3 5 1021.3 1021.3 0.0
27/09:00am 18.8 18.3 11.9 64 3.8 W 6 7 3 4 1021.5 1021.5 0.2
27/08:30am 18.6 19.2 13.0 70 3.2 NW 2 6 1 3 1021.4 1021.4 0.2
27/08:00am 17.7 17.0 11.9 69 3.2 WNW 7 9 4 5 1021.2 1021.2 0.2
27/07:30am 17.3 16.7 13.6 79 2.1 WNW 9 9 5 5 1021.0 1021.0 0.2
27/07:00am 16.5 16.2 13.4 82 1.7 WSW 7 9 4 5 1020.6 1020.6 0.2
27/06:30am 16.0 15.7 13.3 84 1.5 W 7 11 4 6 1020.4 1020.4 0.2
27/06:00am 16.2 15.2 13.3 83 1.6 WNW 11 13 6 7 1020.2 1020.2 0.2
27/05:30am 16.5 15.4 13.0 80 1.9 WNW 11 13 6 7 1019.4 1019.4 0.2
27/05:00am 16.6 15.0 12.9 79 2.1 NW 13 17 7 9 1019.5 1019.5 0.2
27/04:30am 17.0 15.1 14.1 83 1.7 NW 17 20 9 11 1019.6 1019.6 0.2
27/04:00am 16.4 15.7 14.2 87 1.2 WNW 11 15 6 8 1019.4 1019.4 0.2
27/03:30am 16.4 15.7 15.4 94 0.6 WNW 13 15 7 8 1019.3 1019.3 0.2
27/03:00am 15.9 16.9 14.4 91 0.9 NW 2 7 1 4 1019.5 1019.5 0.2
27/02:30am 16.1 17.1 14.3 89 1.0 NW 2 7 1 4 1019.4 1019.4 0.2
27/02:00am 16.4 14.9 13.1 81 1.8 WNW 13 15 7 8 1019.6 1019.6 0.2
27/01:30am 15.4 14.6 12.9 85 1.4 SSW 9 11 5 6 1019.6 1019.6 0.2
27/01:00am 16.8 16.6 15.8 94 0.6 WSW 11 11 6 6 1019.7 1019.7 0.2
27/12:30am 17.6 17.7 17.4 99 0.1 W 13 15 7 8 1020.1 1020.1 0.2
27/12:00am 17.9 18.9 17.7 99 0.1 WNW 9 13 5 7 1020.3 1020.3 0.2
 
Date/Time
EST
Temp
°C
App
Temp
°C
Dew
Point
Rel
Hum
%
Delta-T
°C
Wind Press
QNH
hPa
Press
MSL
hPa
Rain
since 9 am
mm
Dir
 
Spd
km/h
Gust
km/h
Spd
kts
Gust
kts
26/11:30pm 18.8 18.6 18.6 99 0.1 NW 17 19 9 10 1020.5 1020.5 0.2
26/11:00pm 19.2 19.6 19.0 99 0.1 NW 15 19 8 10 1020.4 1020.4 0.2
26/10:30pm 19.2 19.9 18.9 98 0.2 NNW 13 17 7 9 1020.5 1020.5 0.2
26/10:00pm 19.1 19.5 18.1 94 0.6 NNW 13 17 7 9 1020.5 1020.5 0.2
26/09:30pm 19.4 19.6 17.7 90 1.0 NNW 13 17 7 9 1020.4 1020.4 0.2
26/09:00pm 19.8 19.9 17.4 86 1.5 NNW 13 19 7 10 1020.3 1020.3 0.2
26/08:30pm 20.3 19.2 17.3 83 1.8 NNW 19 24 10 13 1020.3 1020.3 0.2
26/08:00pm 20.4 18.6 17.0 81 2.1 NW 22 30 12 16 1019.8 1019.8 0.2
26/07:30pm 20.0 19.2 17.2 84 1.7 NNW 17 22 9 12 1019.6 1019.6 0.2
26/07:00pm 20.3 19.3 17.5 84 1.7 NW 19 28 10 15 1019.1 1019.1 0.2
26/06:30pm 20.5 19.6 16.9 80 2.2 NNW 17 22 9 12 1018.6 1018.6 0.2
26/06:00pm 20.3 19.9 18.1 87 1.4 N 17 26 9 14 1018.2 1018.2 0.2
26/05:30pm 20.6 18.5 18.9 90 1.1 N 28 32 15 17 1017.7 1017.7 0.2
26/05:00pm 21.2 20.2 18.9 87 1.4 NNE 22 26 12 14 1017.3 1017.3 0.2
26/04:30pm 21.8 20.6 18.4 81 2.1 NNE 22 28 12 15 1017.2 1017.2 0.2
26/04:00pm 22.5 19.8 17.6 74 3.0 NNE 28 30 15 16 1016.8 1016.8 0.2
26/03:30pm 23.7 21.1 16.0 62 4.7 N 24 30 13 16 1016.5 1016.5 0.2
26/03:00pm 27.3 25.0 11.7 37 8.9 NNW 15 24 8 13 1016.6 1016.6 0.2
26/02:30pm 27.1 25.0 12.3 39 8.6 NW 15 26 8 14 1016.9 1016.9 0.2
26/02:00pm 26.7 23.8 12.4 41 8.3 NW 19 28 10 15 1017.1 1017.1 0.2
26/01:30pm 26.3 23.1 13.1 44 7.7 NW 22 28 12 15 1017.3 1017.3 0.2
26/01:00pm 26.2 23.6 13.3 45 7.5 NW 19 28 10 15 1017.7 1017.7 0.2
26/12:30pm 25.9 24.0 14.1 48 7.0 NNW 17 26 9 14 1018.1 1018.1 0.2
26/12:00pm 25.2 23.5 14.6 51 6.3 N 17 24 9 13 1018.8 1018.8 0.2
26/11:30am 24.2 23.2 16.5 62 4.7 NE 17 20 9 11 1019.5 1019.5 0.2
26/11:00am 25.0 23.8 16.2 58 5.4 NNE 17 20 9 11 1019.9 1019.9 0.2
26/10:30am 24.2 23.7 13.7 52 6.1 NW 9 15 5 8 1020.4 1020.4 0.2
26/10:00am 22.5 22.8 17.0 71 3.4 NE 11 13 6 7 1020.7 1020.7 0.2
26/09:30am 23.0 24.1 17.2 70 3.6 N 7 9 4 5 1020.7 1020.7 0.2
26/09:00am 21.7 21.2 14.8 65 4.1 NW 11 13 6 7 1020.8 1020.8 0.0
26/08:30am 20.2 20.9 16.2 78 2.4 WNW 7 9 4 5 1020.7 1020.7 0.0
26/08:00am 18.8 18.5 16.4 86 1.4 W 13 15 7 8 1020.6 1020.6 0.0
26/07:30am 18.0 17.8 16.7 92 0.8 NW 13 19 7 10 1020.3 1020.3 0.0
26/07:00am 18.1 20.1 16.9 93 0.7 NW 2 11 1 6 1019.9 1019.9 0.0
26/06:30am 17.4 18.4 16.9 97 0.3 NW 7 9 4 5 1019.6 1019.6 0.0
26/06:00am 17.0 18.4 16.5 97 0.3 SSW 4 7 2 4 1019.2 1019.2 0.0
26/05:30am 17.6 19.3 16.3 92 0.8 W 2 9 1 5 1018.8 1018.8 0.0
26/05:00am 17.9 17.7 16.6 92 0.8 W 13 15 7 8 1018.4 1018.4 0.0
26/04:30am 17.9 17.9 17.3 96 0.4 WNW 13 15 7 8 1018.1 1018.1 0.0
26/04:00am 17.8 18.0 17.6 99 0.1 W 13 17 7 9 1018.1 1018.1 0.0
26/03:30am 17.8 18.0 17.6 99 0.1 WNW 13 17 7 9 1017.8 1017.8 0.0
26/03:00am 18.3 18.8 18.3 100 0.0 NW 13 15 7 8 1017.7 1017.7 0.0
26/02:30am 18.5 19.4 18.5 100 0.0 NW 11 15 6 8 1017.9 1017.9 0.0
26/02:00am 18.6 19.2 18.6 100 0.0 NW 13 15 7 8 1018.0 1018.0 0.0
26/01:30am 18.6 19.6 18.6 100 0.0 NW 11 15 6 8 1018.4 1018.4 0.0
26/01:00am 18.8 19.5 18.8 100 0.0 NW 13 15 7 8 1018.4 1018.4 0.0
26/12:30am 19.4 19.6 19.4 100 0.0 NW 17 19 9 10 1018.6 1018.6 0.0
26/12:00am 19.4 20.7 19.4 100 0.0 NW 11 15 6 8 1018.6 1018.6 0.0
 
Date/Time
EST
Temp
°C
App
Temp
°C
Dew
Point
Rel
Hum
%
Delta-T
°C
Wind Press
QNH
hPa
Press
MSL
hPa
Rain
since 9 am
mm
Dir
 
Spd
km/h
Gust
km/h
Spd
kts
Gust
kts
25/11:30pm 19.6 20.3 19.6 100 0.0 NW 15 17 8 9 1018.7 1018.7 0.0
25/11:00pm 19.4 20.4 19.4 100 0.0 NNW 13 17 7 9 1018.5 1018.5 0.0
25/10:30pm 19.6 20.7 19.6 100 0.0 NNW 13 15 7 8 1018.3 1018.3 0.0
25/10:00pm 19.8 20.9 19.6 99 0.1 NNW 13 17 7 9 1018.2 1018.2 0.0
25/09:30pm 20.0 20.4 19.8 99 0.1 NNW 17 20 9 11 1018.4 1018.4 0.0
25/09:00pm 20.0 21.2 19.8 99 0.1 NNW 13 15 7 8 1018.5 1018.5 0.0
25/08:30pm 20.1 22.1 19.9 99 0.1 NNE 9 13 5 7 1018.4 1018.4 0.0
25/08:00pm 20.4 22.4 19.9 97 0.3 NNW 9 13 5 7 1018.3 1018.3 0.0
25/07:30pm 20.4 22.4 19.9 97 0.3 N 9 15 5 8 1017.8 1017.8 0.0
25/07:00pm 20.5 21.7 20.0 97 0.3 N 13 19 7 10 1017.6 1017.6 0.0
25/06:30pm 20.5 22.3 20.3 99 0.1 NNW 11 15 6 8 1017.1 1017.1 0.0
25/06:00pm 20.6 20.5 19.6 94 0.6 NNE 19 22 10 12 1016.6 1016.6 0.0
25/05:30pm 21.1 21.2 19.2 89 1.2 NNE 17 19 9 10 1016.3 1016.3 0.0
25/05:00pm 21.4 21.4 19.0 86 1.5 NNE 17 22 9 12 1016.0 1016.0 0.0
25/04:30pm 22.3 21.3 18.9 81 2.1 NNE 22 24 12 13 1015.9 1015.9 0.0
25/04:00pm 23.7 23.0 19.4 77 2.7 NNE 22 26 12 14 1015.7 1015.7 0.0
25/03:30pm 23.9 22.7 19.2 75 3.0 NNE 24 28 13 15 1015.7 1015.7 0.0
25/03:00pm 24.2 22.2 18.4 70 3.7 NNE 26 30 14 16 1015.6 1015.6 0.0
25/02:30pm 24.8 23.0 17.8 65 4.4 N 24 30 13 16 1015.7 1015.7 0.0
25/02:00pm 26.6 24.2 16.5 54 6.2 NW 24 33 13 18 1016.0 1016.0 0.0
25/01:30pm 25.4 23.3 16.3 57 5.6 NW 22 30 12 16 1016.4 1016.4 0.0
25/01:00pm 25.9 21.8 15.9 54 6.1 NW 32 39 17 21 1016.5 1016.5 0.0
25/12:30pm 25.4 20.9 16.3 57 5.6 WNW 35 43 19 23 1016.8 1016.8 0.0
25/12:00pm 24.7 20.6 16.4 60 5.1 NW 33 41 18 22 1017.0 1017.0 0.0
25/11:30am 24.8 22.7 18.0 66 4.3 NW 26 33 14 18 1017.6 1017.6 0.0
25/11:00am 23.8 21.2 16.8 65 4.3 NW 26 33 14 18 1018.0 1018.0 0.0
25/10:30am 23.5 20.4 17.5 69 3.7 NW 30 39 16 21 1018.4 1018.4 0.0
25/10:00am 22.3 21.4 18.3 78 2.5 NNW 20 32 11 17 1018.5 1018.5 0.0
25/09:30am 21.3 20.2 18.7 85 1.6 NNW 22 30 12 16 1018.4 1018.4 0.0
25/09:00am 20.3 20.3 19.0 92 0.8 NNW 17 22 9 12 1018.7 1018.7 5.0
25/08:30am 20.3 21.4 19.6 96 0.4 NNW 13 19 7 10 1018.4 1018.4 5.0
25/08:00am 19.1 19.1 18.9 99 0.1 NW 17 24 9 13 1018.3 1018.3 5.0
25/07:30am 18.1 17.7 18.1 100 0.0 NNW 17 24 9 13 1018.0 1018.0 5.0

Other Formats:

Comma delimited format used in spreadsheet applications
http://www.bom.gov.au/fwo/IDQ60801/IDQ60801.94580.axf

JavaScript Object Notation format (JSON) in row-major order
http://www.bom.gov.au/fwo/IDQ60801/IDQ60801.94580.json